sensor_id;sensor_type;location;lat;lon;timestamp;pressure;altitude;pressure_sealevel;temperature;humidity
19114;BME280;9689;51.052;13.772;2022-09-03T00:00:04;100361.84;;;13.69;69.48
19114;BME280;9689;51.052;13.772;2022-09-03T00:05:11;100360.09;;;13.70;70.21
19114;BME280;9689;51.052;13.772;2022-09-03T00:10:19;100355.78;;;13.70;70.79
19114;BME280;9689;51.052;13.772;2022-09-03T00:15:22;100348.19;;;13.64;71.33
19114;BME280;9689;51.052;13.772;2022-09-03T00:20:26;100350.78;;;13.63;71.20
19114;BME280;9689;51.052;13.772;2022-09-03T00:25:34;100332.66;;;13.66;71.76
19114;BME280;9689;51.052;13.772;2022-09-03T00:30:40;100333.81;;;13.54;71.59
19114;BME280;9689;51.052;13.772;2022-09-03T00:35:45;100331.69;;;13.32;72.14
19114;BME280;9689;51.052;13.772;2022-09-03T00:40:55;100330.41;;;13.12;72.62
19114;BME280;9689;51.052;13.772;2022-09-03T00:46:07;100314.31;;;13.01;73.76
19114;BME280;9689;51.052;13.772;2022-09-03T00:51:17;100321.38;;;12.93;73.95
19114;BME280;9689;51.052;13.772;2022-09-03T00:56:29;100318.13;;;12.84;73.86
19114;BME280;9689;51.052;13.772;2022-09-03T01:01:39;100316.59;;;12.74;74.31
19114;BME280;9689;51.052;13.772;2022-09-03T01:06:49;100322.00;;;12.61;74.92
19114;BME280;9689;51.052;13.772;2022-09-03T01:12:00;100322.97;;;12.56;75.77
19114;BME280;9689;51.052;13.772;2022-09-03T01:17:12;100316.25;;;12.48;75.26
19114;BME280;9689;51.052;13.772;2022-09-03T01:22:38;100319.78;;;12.43;75.09
19114;BME280;9689;51.052;13.772;2022-09-03T01:28:00;100322.47;;;12.36;74.67
19114;BME280;9689;51.052;13.772;2022-09-03T01:33:09;100319.06;;;12.34;75.38
19114;BME280;9689;51.052;13.772;2022-09-03T01:38:20;100336.50;;;12.20;75.96
19114;BME280;9689;51.052;13.772;2022-09-03T01:43:34;100332.88;;;12.30;75.41
19114;BME280;9689;51.052;13.772;2022-09-03T01:48:48;100341.22;;;12.45;74.29
19114;BME280;9689;51.052;13.772;2022-09-03T01:54:12;100344.81;;;12.34;73.92
19114;BME280;9689;51.052;13.772;2022-09-03T01:59:26;100339.97;;;12.17;75.13
19114;BME280;9689;51.052;13.772;2022-09-03T02:04:28;100339.16;;;12.15;75.17
19114;BME280;9689;51.052;13.772;2022-09-03T02:09:30;100329.09;;;12.01;74.59
19114;BME280;9689;51.052;13.772;2022-09-03T02:14:33;100319.75;;;11.94;75.31
19114;BME280;9689;51.052;13.772;2022-09-03T02:19:35;100328.53;;;11.82;76.53
19114;BME280;9689;51.052;13.772;2022-09-03T02:24:36;100324.41;;;11.72;77.45
19114;BME280;9689;51.052;13.772;2022-09-03T02:29:38;100322.81;;;11.64;77.12
19114;BME280;9689;51.052;13.772;2022-09-03T02:34:39;100328.88;;;11.59;77.57
19114;BME280;9689;51.052;13.772;2022-09-03T02:39:39;100333.19;;;11.58;78.20
19114;BME280;9689;51.052;13.772;2022-09-03T02:44:45;100331.59;;;11.49;78.53
19114;BME280;9689;51.052;13.772;2022-09-03T02:49:48;100333.31;;;11.49;79.24
19114;BME280;9689;51.052;13.772;2022-09-03T02:54:48;100332.59;;;11.39;78.76
19114;BME280;9689;51.052;13.772;2022-09-03T02:59:51;100332.63;;;11.37;78.65
19114;BME280;9689;51.052;13.772;2022-09-03T03:04:51;100330.13;;;11.33;79.25
19114;BME280;9689;51.052;13.772;2022-09-03T03:09:53;100328.47;;;11.27;79.81
19114;BME280;9689;51.052;13.772;2022-09-03T03:14:55;100330.22;;;11.26;80.29
19114;BME280;9689;51.052;13.772;2022-09-03T03:19:56;100321.72;;;11.23;79.46
19114;BME280;9689;51.052;13.772;2022-09-03T03:24:56;100312.41;;;11.12;80.13
19114;BME280;9689;51.052;13.772;2022-09-03T03:29:58;100319.31;;;11.09;81.00
19114;BME280;9689;51.052;13.772;2022-09-03T03:34:59;100324.22;;;11.27;80.58
19114;BME280;9689;51.052;13.772;2022-09-03T03:39:59;100327.69;;;11.23;80.19
19114;BME280;9689;51.052;13.772;2022-09-03T03:45:02;100329.50;;;11.15;81.24
19114;BME280;9689;51.052;13.772;2022-09-03T03:50:04;100336.31;;;11.19;81.91
19114;BME280;9689;51.052;13.772;2022-09-03T03:55:05;100326.22;;;11.05;82.16
19114;BME280;9689;51.052;13.772;2022-09-03T04:00:09;100327.09;;;11.01;82.73
19114;BME280;9689;51.052;13.772;2022-09-03T04:05:15;100328.09;;;10.92;83.76
19114;BME280;9689;51.052;13.772;2022-09-03T04:10:21;100313.56;;;10.91;83.99
19114;BME280;9689;51.052;13.772;2022-09-03T04:15:23;100317.91;;;10.84;84.64
19114;BME280;9689;51.052;13.772;2022-09-03T04:20:24;100317.91;;;10.83;85.17
19114;BME280;9689;51.052;13.772;2022-09-03T04:25:25;100316.22;;;10.85;85.30
19114;BME280;9689;51.052;13.772;2022-09-03T04:30:27;100315.34;;;10.83;85.24
19114;BME280;9689;51.052;13.772;2022-09-03T04:35:29;100312.84;;;10.77;86.13
19114;BME280;9689;51.052;13.772;2022-09-03T04:40:30;100310.19;;;10.87;85.46
19114;BME280;9689;51.052;13.772;2022-09-03T04:45:32;100311.88;;;10.87;85.97
19114;BME280;9689;51.052;13.772;2022-09-03T04:50:32;100321.38;;;10.82;86.32
19114;BME280;9689;51.052;13.772;2022-09-03T04:55:34;100318.72;;;10.90;86.25
19114;BME280;9689;51.052;13.772;2022-09-03T05:00:37;100327.19;;;10.96;85.65
19114;BME280;9689;51.052;13.772;2022-09-03T05:05:38;100326.28;;;10.99;85.17
19114;BME280;9689;51.052;13.772;2022-09-03T05:10:38;100336.59;;;10.97;85.72
19114;BME280;9689;51.052;13.772;2022-09-03T05:15:40;100332.22;;;11.06;85.54
19114;BME280;9689;51.052;13.772;2022-09-03T05:20:43;100321.94;;;11.04;85.50
19114;BME280;9689;51.052;13.772;2022-09-03T05:25:54;100328.66;;;11.14;85.37
19114;BME280;9689;51.052;13.772;2022-09-03T05:30:59;100325.09;;;11.25;84.59
19114;BME280;9689;51.052;13.772;2022-09-03T05:36:01;100319.13;;;11.23;83.74
19114;BME280;9689;51.052;13.772;2022-09-03T05:41:05;100322.44;;;11.29;84.28
19114;BME280;9689;51.052;13.772;2022-09-03T05:46:09;100330.94;;;11.36;83.49
19114;BME280;9689;51.052;13.772;2022-09-03T05:51:11;100327.44;;;11.42;83.08
19114;BME280;9689;51.052;13.772;2022-09-03T05:56:15;100326.44;;;11.51;83.02
19114;BME280;9689;51.052;13.772;2022-09-03T06:01:20;100328.84;;;11.62;81.77
19114;BME280;9689;51.052;13.772;2022-09-03T06:06:21;100329.31;;;11.87;80.02
19114;BME280;9689;51.052;13.772;2022-09-03T06:11:25;100337.72;;;11.95;78.74
19114;BME280;9689;51.052;13.772;2022-09-03T06:16:28;100333.13;;;12.15;78.52
19114;BME280;9689;51.052;13.772;2022-09-03T06:21:30;100326.78;;;12.34;77.61
19114;BME280;9689;51.052;13.772;2022-09-03T06:26:31;100336.88;;;12.47;75.95
19114;BME280;9689;51.052;13.772;2022-09-03T06:31:35;100340.78;;;12.67;75.54
19114;BME280;9689;51.052;13.772;2022-09-03T06:36:36;100344.78;;;12.82;74.86
19114;BME280;9689;51.052;13.772;2022-09-03T06:41:37;100341.09;;;12.94;73.76
19114;BME280;9689;51.052;13.772;2022-09-03T06:46:40;100340.09;;;13.01;72.39
19114;BME280;9689;51.052;13.772;2022-09-03T06:51:41;100339.00;;;13.11;71.99
19114;BME280;9689;51.052;13.772;2022-09-03T06:56:42;100335.00;;;13.37;71.07
19114;BME280;9689;51.052;13.772;2022-09-03T07:01:46;100345.69;;;13.61;70.60
19114;BME280;9689;51.052;13.772;2022-09-03T07:06:47;100336.06;;;13.68;69.60
19114;BME280;9689;51.052;13.772;2022-09-03T07:11:47;100339.09;;;13.85;69.66
19114;BME280;9689;51.052;13.772;2022-09-03T07:16:49;100334.56;;;13.94;68.00
19114;BME280;9689;51.052;13.772;2022-09-03T07:21:50;100328.56;;;14.26;67.24
19114;BME280;9689;51.052;13.772;2022-09-03T07:26:51;100321.28;;;14.41;66.43
19114;BME280;9689;51.052;13.772;2022-09-03T07:31:52;100322.56;;;14.58;65.23
19114;BME280;9689;51.052;13.772;2022-09-03T07:36:53;100313.34;;;14.80;64.92
19114;BME280;9689;51.052;13.772;2022-09-03T07:41:54;100304.69;;;14.81;64.51
19114;BME280;9689;51.052;13.772;2022-09-03T07:46:57;100297.69;;;14.85;63.22
19114;BME280;9689;51.052;13.772;2022-09-03T07:51:59;100291.94;;;15.05;62.80
19114;BME280;9689;51.052;13.772;2022-09-03T07:57:01;100296.13;;;15.36;61.79
19114;BME280;9689;51.052;13.772;2022-09-03T08:02:03;100298.88;;;15.59;60.72
19114;BME280;9689;51.052;13.772;2022-09-03T08:07:04;100299.91;;;15.80;61.00
19114;BME280;9689;51.052;13.772;2022-09-03T08:12:05;100303.09;;;15.88;60.30
19114;BME280;9689;51.052;13.772;2022-09-03T08:17:07;100295.31;;;16.15;59.60
19114;BME280;9689;51.052;13.772;2022-09-03T08:22:08;100290.63;;;16.25;56.87
19114;BME280;9689;51.052;13.772;2022-09-03T08:27:09;100287.88;;;16.54;56.84
19114;BME280;9689;51.052;13.772;2022-09-03T08:32:11;100284.41;;;16.79;56.72
19114;BME280;9689;51.052;13.772;2022-09-03T08:37:12;100285.22;;;17.03;55.57
19114;BME280;9689;51.052;13.772;2022-09-03T08:42:26;100287.81;;;17.25;53.23
19114;BME280;9689;51.052;13.772;2022-09-03T08:47:32;100275.25;;;17.37;51.42
19114;BME280;9689;51.052;13.772;2022-09-03T08:52:39;100283.31;;;17.51;50.63
19114;BME280;9689;51.052;13.772;2022-09-03T08:57:48;100282.94;;;17.61;50.09
19114;BME280;9689;51.052;13.772;2022-09-03T09:03:00;100275.44;;;17.75;49.77
19114;BME280;9689;51.052;13.772;2022-09-03T09:08:14;100264.38;;;17.91;48.99
19114;BME280;9689;51.052;13.772;2022-09-03T09:13:23;100258.53;;;18.06;49.65
19114;BME280;9689;51.052;13.772;2022-09-03T09:18:38;100267.63;;;18.17;48.15
19114;BME280;9689;51.052;13.772;2022-09-03T09:23:46;100252.53;;;18.25;48.01
19114;BME280;9689;51.052;13.772;2022-09-03T09:28:52;100244.75;;;18.44;46.94
19114;BME280;9689;51.052;13.772;2022-09-03T09:34:01;100239.31;;;18.49;47.08
19114;BME280;9689;51.052;13.772;2022-09-03T09:39:07;100246.28;;;18.68;46.57
19114;BME280;9689;51.052;13.772;2022-09-03T09:44:18;100242.94;;;18.83;46.78
19114;BME280;9689;51.052;13.772;2022-09-03T09:49:29;100237.16;;;18.96;45.97
19114;BME280;9689;51.052;13.772;2022-09-03T09:54:31;100235.94;;;19.05;46.21
19114;BME280;9689;51.052;13.772;2022-09-03T09:59:33;100233.19;;;19.25;45.46
19114;BME280;9689;51.052;13.772;2022-09-03T10:04:37;100233.13;;;19.45;45.08
19114;BME280;9689;51.052;13.772;2022-09-03T10:09:38;100227.91;;;19.62;44.82
19114;BME280;9689;51.052;13.772;2022-09-03T10:14:43;100223.91;;;19.73;44.03
19114;BME280;9689;51.052;13.772;2022-09-03T10:19:55;100218.31;;;19.80;44.31
19114;BME280;9689;51.052;13.772;2022-09-03T10:25:19;100211.81;;;20.05;44.36
19114;BME280;9689;51.052;13.772;2022-09-03T10:30:20;100205.69;;;20.22;45.18
19114;BME280;9689;51.052;13.772;2022-09-03T10:35:27;100209.50;;;20.49;44.21
19114;BME280;9689;51.052;13.772;2022-09-03T10:40:33;100205.97;;;20.50;43.62
19114;BME280;9689;51.052;13.772;2022-09-03T10:45:41;100191.56;;;20.91;41.98
19114;BME280;9689;51.052;13.772;2022-09-03T10:50:50;100190.47;;;21.26;41.52
19114;BME280;9689;51.052;13.772;2022-09-03T10:55:57;100192.28;;;21.54;40.92
19114;BME280;9689;51.052;13.772;2022-09-03T11:01:03;100186.19;;;21.39;40.12
19114;BME280;9689;51.052;13.772;2022-09-03T11:06:10;100183.28;;;21.29;41.06
19114;BME280;9689;51.052;13.772;2022-09-03T11:11:16;100186.84;;;21.28;40.44
19114;BME280;9689;51.052;13.772;2022-09-03T11:16:22;100180.34;;;21.50;40.33
19114;BME280;9689;51.052;13.772;2022-09-03T11:21:29;100161.69;;;21.56;41.18
19114;BME280;9689;51.052;13.772;2022-09-03T11:26:31;100178.59;;;21.65;39.96
19114;BME280;9689;51.052;13.772;2022-09-03T11:31:44;100163.59;;;21.69;40.19
19114;BME280;9689;51.052;13.772;2022-09-03T11:36:47;100163.09;;;21.77;39.64
19114;BME280;9689;51.052;13.772;2022-09-03T11:41:58;100169.03;;;21.50;40.96
19114;BME280;9689;51.052;13.772;2022-09-03T11:47:00;100164.66;;;21.50;40.73
19114;BME280;9689;51.052;13.772;2022-09-03T11:52:03;100166.97;;;21.26;41.09
19114;BME280;9689;51.052;13.772;2022-09-03T11:57:10;100166.06;;;21.11;41.29
19114;BME280;9689;51.052;13.772;2022-09-03T12:02:22;100154.59;;;20.99;41.07
19114;BME280;9689;51.052;13.772;2022-09-03T12:18:29;100142.66;;;21.98;39.70
19114;BME280;9689;51.052;13.772;2022-09-03T12:23:33;100142.41;;;22.16;39.20
19114;BME280;9689;51.052;13.772;2022-09-03T12:28:36;100146.06;;;22.55;37.87
19114;BME280;9689;51.052;13.772;2022-09-03T12:33:42;100147.16;;;22.65;36.96
19114;BME280;9689;51.052;13.772;2022-09-03T12:38:45;100138.31;;;22.81;36.43
19114;BME280;9689;51.052;13.772;2022-09-03T12:44:09;100142.19;;;22.88;37.17
19114;BME280;9689;51.052;13.772;2022-09-03T12:49:13;100129.22;;;23.13;37.31
19114;BME280;9689;51.052;13.772;2022-09-03T12:54:32;100118.47;;;23.43;36.69
19114;BME280;9689;51.052;13.772;2022-09-03T12:59:35;100130.75;;;23.30;36.93
19114;BME280;9689;51.052;13.772;2022-09-03T13:04:38;100126.47;;;22.88;37.68
19114;BME280;9689;51.052;13.772;2022-09-03T13:09:41;100121.88;;;22.92;37.98
19114;BME280;9689;51.052;13.772;2022-09-03T13:14:42;100120.28;;;22.49;39.15
19114;BME280;9689;51.052;13.772;2022-09-03T13:20:09;100115.44;;;22.43;38.98
19114;BME280;9689;51.052;13.772;2022-09-03T13:25:23;100109.00;;;22.89;38.29
19114;BME280;9689;51.052;13.772;2022-09-03T13:30:31;100099.72;;;23.49;37.58
19114;BME280;9689;51.052;13.772;2022-09-03T13:35:39;100100.63;;;23.61;36.49
19114;BME280;9689;51.052;13.772;2022-09-03T13:40:48;100085.47;;;23.78;36.07
19114;BME280;9689;51.052;13.772;2022-09-03T13:45:54;100095.66;;;23.83;36.81
19114;BME280;9689;51.052;13.772;2022-09-03T13:51:06;100089.69;;;24.05;35.19
19114;BME280;9689;51.052;13.772;2022-09-03T13:56:22;100089.91;;;23.78;36.71
19114;BME280;9689;51.052;13.772;2022-09-03T14:01:45;100086.22;;;23.80;36.34
19114;BME280;9689;51.052;13.772;2022-09-03T14:06:58;100087.84;;;23.57;37.37
19114;BME280;9689;51.052;13.772;2022-09-03T14:12:09;100084.09;;;23.35;38.06
19114;BME280;9689;51.052;13.772;2022-09-03T14:17:16;100082.72;;;23.16;37.94
19114;BME280;9689;51.052;13.772;2022-09-03T14:22:21;100078.50;;;22.88;38.43
19114;BME280;9689;51.052;13.772;2022-09-03T14:27:27;100082.25;;;22.71;38.75
19114;BME280;9689;51.052;13.772;2022-09-03T14:32:31;100086.31;;;22.34;39.91
19114;BME280;9689;51.052;13.772;2022-09-03T14:38:12;100084.06;;;22.15;40.28
19114;BME280;9689;51.052;13.772;2022-09-03T14:43:37;100080.75;;;22.53;39.46
19114;BME280;9689;51.052;13.772;2022-09-03T14:48:56;100088.75;;;22.37;40.12
19114;BME280;9689;51.052;13.772;2022-09-03T14:54:14;100094.56;;;22.28;39.78
19114;BME280;9689;51.052;13.772;2022-09-03T14:59:33;100085.19;;;22.38;39.41
19114;BME280;9689;51.052;13.772;2022-09-03T15:04:49;100085.22;;;22.79;39.76
19114;BME280;9689;51.052;13.772;2022-09-03T15:09:59;100084.16;;;22.81;39.10
19114;BME280;9689;51.052;13.772;2022-09-03T15:15:09;100079.44;;;22.87;39.01
19114;BME280;9689;51.052;13.772;2022-09-03T15:20:20;100077.38;;;23.18;38.16
19114;BME280;9689;51.052;13.772;2022-09-03T15:25:30;100084.06;;;23.22;38.70
19114;BME280;9689;51.052;13.772;2022-09-03T15:30:46;100074.00;;;23.16;37.81
19114;BME280;9689;51.052;13.772;2022-09-03T15:36:02;100070.34;;;23.18;38.24
19114;BME280;9689;51.052;13.772;2022-09-03T15:41:09;100076.00;;;23.12;38.50
19114;BME280;9689;51.052;13.772;2022-09-03T15:46:33;100079.13;;;22.91;38.35
19114;BME280;9689;51.052;13.772;2022-09-03T15:51:42;100080.38;;;22.73;38.97
19114;BME280;9689;51.052;13.772;2022-09-03T15:56:52;100083.13;;;22.16;39.77
19114;BME280;9689;51.052;13.772;2022-09-03T16:02:02;100084.50;;;21.65;40.20
19114;BME280;9689;51.052;13.772;2022-09-03T16:07:08;100094.09;;;21.65;40.57
19114;BME280;9689;51.052;13.772;2022-09-03T16:12:20;100099.53;;;21.91;40.09
19114;BME280;9689;51.052;13.772;2022-09-03T16:17:32;100092.63;;;21.90;39.74
19114;BME280;9689;51.052;13.772;2022-09-03T16:22:40;100087.38;;;21.60;40.09
19114;BME280;9689;51.052;13.772;2022-09-03T16:27:52;100084.53;;;22.07;40.07
19114;BME280;9689;51.052;13.772;2022-09-03T16:33:04;100074.19;;;22.46;38.92
19114;BME280;9689;51.052;13.772;2022-09-03T16:38:21;100079.53;;;22.59;39.46
19114;BME280;9689;51.052;13.772;2022-09-03T16:43:33;100087.88;;;21.82;40.58
19114;BME280;9689;51.052;13.772;2022-09-03T16:48:47;100093.75;;;21.56;41.84
19114;BME280;9689;51.052;13.772;2022-09-03T16:54:11;100086.19;;;21.81;41.28
19114;BME280;9689;51.052;13.772;2022-09-03T16:59:32;100075.50;;;23.83;37.43
19114;BME280;9689;51.052;13.772;2022-09-03T17:05:02;100072.44;;;24.02;36.86
19114;BME280;9689;51.052;13.772;2022-09-03T17:10:18;100078.22;;;24.43;36.38
19114;BME280;9689;51.052;13.772;2022-09-03T17:15:29;100078.03;;;23.47;37.38
19114;BME280;9689;51.052;13.772;2022-09-03T17:20:51;100074.56;;;22.27;39.86
19114;BME280;9689;51.052;13.772;2022-09-03T17:26:01;100081.06;;;21.21;41.98
19114;BME280;9689;51.052;13.772;2022-09-03T17:31:08;100079.69;;;20.38;43.86
19114;BME280;9689;51.052;13.772;2022-09-03T17:36:17;100082.88;;;19.79;45.91
19114;BME280;9689;51.052;13.772;2022-09-03T17:41:29;100082.38;;;19.38;47.11
19114;BME280;9689;51.052;13.772;2022-09-03T17:46:42;100100.53;;;19.06;48.17
19114;BME280;9689;51.052;13.772;2022-09-03T17:51:49;100096.13;;;18.89;49.21
19114;BME280;9689;51.052;13.772;2022-09-03T17:56:55;100103.38;;;18.65;50.03
19114;BME280;9689;51.052;13.772;2022-09-03T18:02:03;100108.13;;;18.74;51.36
19114;BME280;9689;51.052;13.772;2022-09-03T18:07:13;100106.06;;;18.63;51.74
19114;BME280;9689;51.052;13.772;2022-09-03T18:12:26;100105.31;;;18.42;53.02
19114;BME280;9689;51.052;13.772;2022-09-03T18:17:32;100118.28;;;18.24;53.80
19114;BME280;9689;51.052;13.772;2022-09-03T18:22:41;100126.50;;;18.15;54.50
19114;BME280;9689;51.052;13.772;2022-09-03T18:28:04;100138.78;;;18.11;55.32
19114;BME280;9689;51.052;13.772;2022-09-03T18:33:25;100138.47;;;17.98;55.85
19114;BME280;9689;51.052;13.772;2022-09-03T18:38:45;100140.91;;;17.82;56.76
19114;BME280;9689;51.052;13.772;2022-09-03T18:44:08;100143.94;;;17.73;57.83
19114;BME280;9689;51.052;13.772;2022-09-03T18:49:36;100152.75;;;17.69;58.39
19114;BME280;9689;51.052;13.772;2022-09-03T18:55:05;100154.81;;;17.62;58.71
19114;BME280;9689;51.052;13.772;2022-09-03T19:00:29;100154.47;;;17.49;59.67
19114;BME280;9689;51.052;13.772;2022-09-03T19:06:01;100163.44;;;17.42;60.35
19114;BME280;9689;51.052;13.772;2022-09-03T19:11:28;100173.50;;;17.29;60.47
19114;BME280;9689;51.052;13.772;2022-09-03T19:17:00;100167.13;;;17.15;60.79
19114;BME280;9689;51.052;13.772;2022-09-03T19:22:27;100168.56;;;17.22;60.51
19114;BME280;9689;51.052;13.772;2022-09-03T19:27:55;100163.88;;;17.10;60.98
19114;BME280;9689;51.052;13.772;2022-09-03T19:33:25;100171.91;;;17.04;61.32
19114;BME280;9689;51.052;13.772;2022-09-03T19:39:00;100167.06;;;16.94;61.32
19114;BME280;9689;51.052;13.772;2022-09-03T19:44:33;100180.28;;;16.88;62.24
19114;BME280;9689;51.052;13.772;2022-09-03T19:50:03;100180.53;;;16.82;62.44
19114;BME280;9689;51.052;13.772;2022-09-03T19:55:33;100183.00;;;16.85;62.48
19114;BME280;9689;51.052;13.772;2022-09-03T20:00:53;100185.72;;;16.82;62.55
19114;BME280;9689;51.052;13.772;2022-09-03T20:06:12;100185.84;;;16.79;63.18
19114;BME280;9689;51.052;13.772;2022-09-03T20:11:31;100198.13;;;16.74;63.02
19114;BME280;9689;51.052;13.772;2022-09-03T20:16:39;100202.59;;;16.70;63.01
19114;BME280;9689;51.052;13.772;2022-09-03T20:21:48;100207.16;;;16.63;63.78
19114;BME280;9689;51.052;13.772;2022-09-03T20:26:54;100207.06;;;16.66;63.99
19114;BME280;9689;51.052;13.772;2022-09-03T20:32:04;100207.28;;;16.60;63.68
19114;BME280;9689;51.052;13.772;2022-09-03T20:37:16;100217.13;;;16.52;64.38
19114;BME280;9689;51.052;13.772;2022-09-03T20:42:34;100218.81;;;16.53;64.25
19114;BME280;9689;51.052;13.772;2022-09-03T20:48:06;100220.16;;;16.39;64.77
19114;BME280;9689;51.052;13.772;2022-09-03T20:53:20;100225.00;;;16.49;64.57
19114;BME280;9689;51.052;13.772;2022-09-03T20:58:32;100226.81;;;16.47;64.54
19114;BME280;9689;51.052;13.772;2022-09-03T21:03:42;100221.03;;;16.40;65.27
19114;BME280;9689;51.052;13.772;2022-09-03T21:08:58;100219.25;;;16.40;65.29
19114;BME280;9689;51.052;13.772;2022-09-03T21:14:09;100225.41;;;16.38;65.29
19114;BME280;9689;51.052;13.772;2022-09-03T21:19:19;100212.53;;;16.36;65.66
19114;BME280;9689;51.052;13.772;2022-09-03T21:24:23;100220.31;;;16.36;65.22
19114;BME280;9689;51.052;13.772;2022-09-03T21:29:33;100229.13;;;16.30;65.74
19114;BME280;9689;51.052;13.772;2022-09-03T21:34:45;100221.56;;;16.24;66.33
19114;BME280;9689;51.052;13.772;2022-09-03T21:39:53;100232.28;;;16.15;66.68
19114;BME280;9689;51.052;13.772;2022-09-03T21:44:57;100242.56;;;15.93;67.43
19114;BME280;9689;51.052;13.772;2022-09-03T21:50:05;100245.13;;;15.93;67.58
19114;BME280;9689;51.052;13.772;2022-09-03T21:55:20;100247.25;;;15.81;68.26
19114;BME280;9689;51.052;13.772;2022-09-03T22:00:25;100245.69;;;15.75;68.60
19114;BME280;9689;51.052;13.772;2022-09-03T22:05:42;100256.03;;;15.75;69.07
19114;BME280;9689;51.052;13.772;2022-09-03T22:10:58;100246.22;;;15.60;69.46
19114;BME280;9689;51.052;13.772;2022-09-03T22:16:08;100252.28;;;15.59;69.90
19114;BME280;9689;51.052;13.772;2022-09-03T22:21:18;100252.00;;;15.41;70.46
19114;BME280;9689;51.052;13.772;2022-09-03T22:26:32;100255.47;;;15.40;70.47
19114;BME280;9689;51.052;13.772;2022-09-03T22:31:54;100254.00;;;15.33;70.96
19114;BME280;9689;51.052;13.772;2022-09-03T22:37:00;100254.16;;;15.28;71.58
19114;BME280;9689;51.052;13.772;2022-09-03T22:42:13;100257.03;;;15.19;72.15
19114;BME280;9689;51.052;13.772;2022-09-03T22:47:25;100253.78;;;15.12;71.72
19114;BME280;9689;51.052;13.772;2022-09-03T22:52:40;100250.56;;;15.05;72.57
19114;BME280;9689;51.052;13.772;2022-09-03T22:57:51;100249.06;;;14.98;73.04
19114;BME280;9689;51.052;13.772;2022-09-03T23:03:00;100247.75;;;14.85;74.00
19114;BME280;9689;51.052;13.772;2022-09-03T23:08:08;100251.16;;;14.85;74.02
19114;BME280;9689;51.052;13.772;2022-09-03T23:13:15;100257.50;;;14.73;74.38
19114;BME280;9689;51.052;13.772;2022-09-03T23:18:21;100261.97;;;14.68;74.90
19114;BME280;9689;51.052;13.772;2022-09-03T23:23:28;100258.59;;;14.66;75.38
19114;BME280;9689;51.052;13.772;2022-09-03T23:28:32;100253.66;;;14.57;75.35
19114;BME280;9689;51.052;13.772;2022-09-03T23:33:34;100254.50;;;14.59;75.16
19114;BME280;9689;51.052;13.772;2022-09-03T23:38:46;100260.28;;;14.67;75.11
19114;BME280;9689;51.052;13.772;2022-09-03T23:44:05;100260.97;;;14.74;75.12
19114;BME280;9689;51.052;13.772;2022-09-03T23:49:36;100267.53;;;14.86;74.64
19114;BME280;9689;51.052;13.772;2022-09-03T23:54:46;100259.59;;;14.92;74.96
